Time;durP1;ratioP1;P1;durP2;ratioP2;P2;SDS_P1;SDS_P2;PMS_P1;PMS_P2;Temp;Humidity;BMP_temperature;BMP_pressure;BME280_temperature;BME280_humidity;BME280_pressure;Samples;Min_cycle;Max_cycle;Signal;HPM_P1;HPM_P2
2023/05/19 00:01:07;;;;;;;5.20;2.65;;;21.20;46.50;;;;;;4956655;28;20037;-74
2023/05/19 00:03:39;;;;;;;4.65;2.53;;;21.20;46.50;;;;;;4974058;28;20516;-75
2023/05/19 00:06:07;;;;;;;5.63;2.40;;;21.20;46.50;;;;;;4956802;28;20077;-74
2023/05/19 00:08:33;;;;;;;5.03;2.53;;;21.20;46.50;;;;;;4973544;28;20050;-75
2023/05/19 00:11:00;;;;;;;5.50;2.35;;;21.20;46.50;;;;;;4973836;28;20031;-75
2023/05/19 00:13:26;;;;;;;6.20;2.50;;;21.20;46.60;;;;;;4974027;28;20027;-75
2023/05/19 00:15:53;;;;;;;5.55;2.60;;;21.20;46.50;;;;;;4973813;28;20023;-75
2023/05/19 00:18:19;;;;;;;5.15;2.35;;;21.20;46.60;;;;;;4973421;28;20087;-75
2023/05/19 00:20:45;;;;;;;5.72;2.47;;;21.20;46.60;;;;;;4973850;28;20034;-74
2023/05/19 00:23:11;;;;;;;6.82;2.65;;;21.20;46.60;;;;;;4973677;28;20074;-75
2023/05/19 00:25:37;;;;;;;4.47;2.33;;;21.20;46.60;;;;;;4973763;28;20035;-75
2023/05/19 00:28:03;;;;;;;4.45;2.40;;;21.20;46.60;;;;;;4973319;28;20038;-75
2023/05/19 00:30:29;;;;;;;4.70;2.50;;;21.20;46.50;;;;;;4955974;28;20035;-75
2023/05/19 00:32:55;;;;;;;4.90;2.50;;;21.20;46.60;;;;;;4956429;28;20462;-74
2023/05/19 00:35:22;;;;;;;5.38;2.47;;;21.20;46.60;;;;;;4956265;28;20481;-74
2023/05/19 00:37:48;;;;;;;5.45;2.58;;;21.20;46.60;;;;;;4940281;28;20035;-75
2023/05/19 00:40:14;;;;;;;4.57;2.30;;;21.20;46.50;;;;;;4956069;28;20041;-75
2023/05/19 00:42:40;;;;;;;5.43;2.55;;;21.10;46.50;;;;;;4956056;28;20030;-75
2023/05/19 00:45:07;;;;;;;5.20;2.30;;;21.20;46.50;;;;;;4940265;28;20039;-75
2023/05/19 00:47:33;;;;;;;5.38;2.28;;;21.20;46.50;;;;;;4955749;28;20378;-75
2023/05/19 00:49:59;;;;;;;6.30;2.50;;;21.20;46.50;;;;;;4973035;28;20122;-74
2023/05/19 00:52:26;;;;;;;4.95;2.03;;;21.20;46.40;;;;;;4955877;28;20030;-74
2023/05/19 00:54:54;;;;;;;5.72;2.53;;;21.20;46.50;;;;;;4973199;28;20066;-75
2023/05/19 00:57:20;;;;;;;8.07;2.20;;;21.20;46.50;;;;;;4955517;28;20437;-75
2023/05/19 00:59:47;;;;;;;4.53;2.30;;;21.20;46.50;;;;;;4955650;28;20105;-74
2023/05/19 01:02:13;;;;;;;4.78;2.15;;;21.20;46.50;;;;;;4955784;28;20031;-75
2023/05/19 01:04:42;;;;;;;5.82;2.17;;;21.20;46.40;;;;;;4972927;28;20417;-75
2023/05/19 01:07:09;;;;;;;5.05;2.40;;;21.20;46.50;;;;;;4972577;28;20030;-74
2023/05/19 01:09:36;;;;;;;5.47;2.42;;;21.20;46.50;;;;;;4955430;28;20034;-75
2023/05/19 01:12:02;;;;;;;4.35;2.33;;;21.10;46.50;;;;;;4939312;28;20503;-76
2023/05/19 01:14:28;;;;;;;4.05;2.00;;;21.20;46.60;;;;;;4972979;28;20027;-75
2023/05/19 01:17:23;;;;;;;3.13;2.08;;;21.10;46.50;;;;;;4972595;28;20021;-75
2023/05/19 01:20:05;;;;;;;4.40;2.13;;;21.20;46.50;;;;;;4955505;28;20038;-76
2023/05/19 01:22:41;;;;;;;4.72;2.15;;;21.10;46.50;;;;;;4972639;28;20042;-75
2023/05/19 01:25:29;;;;;;;6.20;2.33;;;21.10;46.50;;;;;;4955421;28;20448;-75
2023/05/19 01:28:24;;;;;;;4.57;2.25;;;21.10;46.50;;;;;;4972290;28;20077;-75
2023/05/19 01:30:55;;;;;;;3.25;1.90;;;21.10;46.50;;;;;;4955158;28;20089;-75
2023/05/19 01:33:23;;;;;;;5.78;2.22;;;21.10;46.50;;;;;;4955599;28;20493;-75
2023/05/19 01:35:50;;;;;;;4.15;2.00;;;21.10;46.40;;;;;;4972495;28;20054;-75
2023/05/19 01:38:19;;;;;;;5.18;2.22;;;21.10;46.50;;;;;;4954779;28;20030;-75
2023/05/19 01:40:47;;;;;;;6.18;2.35;;;21.10;46.50;;;;;;4972620;28;20035;-75
2023/05/19 01:43:20;;;;;;;4.35;2.20;;;21.10;46.50;;;;;;4955157;28;20035;-75
2023/05/19 01:45:47;;;;;;;4.13;2.17;;;21.10;46.50;;;;;;4955107;28;20513;-75
2023/05/19 01:48:14;;;;;;;4.05;2.00;;;21.10;46.50;;;;;;4971912;28;20041;-75
2023/05/19 01:50:40;;;;;;;5.05;2.20;;;21.10;46.50;;;;;;4954984;28;20162;-75
2023/05/19 01:53:07;;;;;;;3.20;1.80;;;21.10;46.50;;;;;;4954946;28;20416;-74
2023/05/19 01:55:40;;;;;;;5.70;1.90;;;21.10;46.40;;;;;;4939212;28;20031;-75
2023/05/19 01:58:27;;;;;;;3.55;2.10;;;21.10;46.40;;;;;;4954718;28;20038;-76
2023/05/19 02:01:18;;;;;;;4.18;1.98;;;21.10;46.40;;;;;;4954978;28;20026;-75
2023/05/19 02:04:08;;;;;;;4.60;2.10;;;21.10;46.40;;;;;;4972236;28;20038;-75
2023/05/19 02:07:04;;;;;;;4.55;2.20;;;21.10;46.40;;;;;;4972327;28;20035;-75
2023/05/19 02:10:02;;;;;;;5.30;2.00;;;21.10;46.40;;;;;;4964024;28;20043;-74
2023/05/19 02:12:33;;;;;;;5.27;2.30;;;21.10;46.40;;;;;;4955185;28;20027;-74
2023/05/19 02:15:05;;;;;;;3.72;2.03;;;21.10;46.40;;;;;;4954766;28;20062;-75
2023/05/19 02:17:35;;;;;;;4.32;2.03;;;21.10;46.40;;;;;;4954495;28;20034;-74
2023/05/19 02:20:03;;;;;;;5.00;2.00;;;21.10;46.50;;;;;;4938834;28;20113;-75
2023/05/19 02:22:30;;;;;;;4.88;2.10;;;21.10;46.40;;;;;;4954706;28;20035;-75
2023/05/19 02:24:56;;;;;;;3.67;2.08;;;21.10;46.50;;;;;;4957075;28;20038;-75
2023/05/19 02:27:22;;;;;;;3.58;1.80;;;21.10;46.50;;;;;;4975532;28;20555;-75
2023/05/19 02:29:48;;;;;;;4.55;1.95;;;21.10;46.50;;;;;;4958194;28;20077;-75
2023/05/19 02:32:14;;;;;;;4.63;1.95;;;21.10;46.50;;;;;;4958715;28;20025;-74
2023/05/19 02:34:44;;;;;;;5.88;1.95;;;21.10;46.40;;;;;;4975735;28;20031;-75
2023/05/19 02:37:12;;;;;;;;;;;21.10;46.50;;;;;;4976077;28;20035;-75
2023/05/19 02:39:38;;;;;;;4.75;2.10;;;21.00;46.40;;;;;;4942439;28;20001;-75
2023/05/19 02:42:04;;;;;;;5.07;2.17;;;21.10;46.40;;;;;;4975554;28;20031;-75
2023/05/19 02:44:30;;;;;;;4.53;2.10;;;21.00;46.40;;;;;;4958070;28;20038;-74
2023/05/19 02:46:56;;;;;;;5.18;1.90;;;21.00;46.40;;;;;;4975471;28;20114;-75
2023/05/19 02:49:21;;;;;;;3.63;1.73;;;21.00;46.40;;;;;;4958442;28;20030;-74
2023/05/19 02:51:47;;;;;;;5.32;1.80;;;21.00;46.50;;;;;;4963960;28;20110;-74
2023/05/19 02:54:13;;;;;;;4.07;1.88;;;21.00;46.40;;;;;;4966774;28;20103;-74
2023/05/19 02:56:39;;;;;;;3.28;1.95;;;21.00;46.40;;;;;;4966563;28;20026;-74
2023/05/19 02:59:05;;;;;;;4.80;1.80;;;21.00;46.40;;;;;;4965483;28;20485;-74
2023/05/19 03:01:31;;;;;;;3.88;1.80;;;21.00;46.40;;;;;;4963002;28;20030;-74
2023/05/19 03:03:57;;;;;;;4.90;1.77;;;21.00;46.30;;;;;;4947070;28;20035;-74
2023/05/19 03:06:23;;;;;;;2.95;1.83;;;21.00;46.30;;;;;;4961546;28;20102;-74
2023/05/19 03:08:49;;;;;;;4.20;1.83;;;21.00;46.30;;;;;;4959496;28;20095;-75
2023/05/19 03:11:15;;;;;;;5.15;1.90;;;21.00;46.30;;;;;;4960219;28;20035;-74
2023/05/19 03:13:41;;;;;;;4.78;1.80;;;21.00;46.30;;;;;;4961011;28;20034;-75
2023/05/19 03:16:07;;;;;;;3.95;1.90;;;21.00;46.30;;;;;;4976827;28;20030;-74
2023/05/19 03:18:34;;;;;;;2.72;1.55;;;21.00;46.30;;;;;;4976639;28;20096;-75
2023/05/19 03:21:00;;;;;;;3.80;1.58;;;21.00;46.40;;;;;;4958823;28;20096;-75
2023/05/19 03:23:26;;;;;;;3.38;1.67;;;21.00;46.30;;;;;;4975779;28;20449;-75
2023/05/19 03:25:55;;;;;;;3.53;1.88;;;21.00;46.40;;;;;;4958104;28;20041;-74
2023/05/19 03:28:26;;;;;;;2.92;1.50;;;21.00;46.40;;;;;;4957794;28;20039;-75
2023/05/19 03:30:52;;;;;;;4.93;1.73;;;21.00;46.40;;;;;;4957744;28;20070;-75
2023/05/19 03:33:22;;;;;;;4.38;2.00;;;21.00;46.40;;;;;;4942432;28;20504;-75
2023/05/19 03:35:48;;;;;;;3.40;1.65;;;21.00;46.40;;;;;;4957295;28;20034;-75
2023/05/19 03:38:15;;;;;;;3.95;1.90;;;21.00;46.40;;;;;;4957269;28;20026;-75
2023/05/19 03:40:48;;;;;;;3.42;1.60;;;21.00;46.40;;;;;;4957822;28;20035;-74
2023/05/19 03:43:15;;;;;;;3.17;1.70;;;21.00;46.40;;;;;;4957537;28;20113;-74
2023/05/19 03:45:46;;;;;;;4.65;1.67;;;21.00;46.40;;;;;;4957529;28;20030;-74
2023/05/19 03:48:30;;;;;;;3.65;1.75;;;21.00;46.40;;;;;;4974497;28;20113;-75
2023/05/19 03:51:14;;;;;;;4.25;2.10;;;21.00;46.40;;;;;;4974788;28;20037;-75
2023/05/19 03:53:40;;;;;;;4.82;1.80;;;21.00;46.40;;;;;;4957496;28;20030;-76
2023/05/19 03:56:07;;;;;;;5.10;1.70;;;21.00;46.40;;;;;;4941580;28;20030;-75
2023/05/19 03:58:35;;;;;;;4.80;1.90;;;21.00;46.30;;;;;;4956853;28;20037;-76
2023/05/19 04:01:02;;;;;;;4.13;1.67;;;21.10;46.50;;;;;;4957265;28;20106;-75
2023/05/19 04:03:27;;;;;;;4.50;2.00;;;21.00;46.30;;;;;;4974861;28;20085;-75
2023/05/19 04:05:53;;;;;;;2.65;1.70;;;21.10;46.40;;;;;;4957139;28;20043;-75
2023/05/19 04:08:19;;;;;;;4.32;1.70;;;21.10;46.40;;;;;;4956734;28;20039;-75
2023/05/19 04:10:45;;;;;;;3.55;1.70;;;21.10;46.30;;;;;;4956984;28;20110;-76
2023/05/19 04:13:13;;;;;;;5.22;2.03;;;21.00;46.30;;;;;;4957076;28;20027;-75
2023/05/19 04:15:40;;;;;;;5.20;2.00;;;21.10;46.40;;;;;;4941166;28;20030;-75
2023/05/19 04:18:05;;;;;;;3.78;1.88;;;21.00;46.30;;;;;;4956806;28;20023;-75
2023/05/19 04:20:31;;;;;;;4.22;2.00;;;21.10;46.30;;;;;;4974130;28;20441;-76
2023/05/19 04:22:57;;;;;;;5.97;2.45;;;21.10;46.40;;;;;;4956765;28;20063;-76
2023/05/19 04:25:27;;;;;;;3.92;2.08;;;21.10;46.40;;;;;;4956874;28;20466;-75
2023/05/19 04:27:56;;;;;;;4.10;2.08;;;21.10;46.40;;;;;;4940748;28;20035;-75
2023/05/19 04:30:23;;;;;;;3.40;2.00;;;21.00;46.40;;;;;;4956511;28;20492;-75
2023/05/19 04:32:49;;;;;;;6.75;1.85;;;21.10;46.40;;;;;;4956842;28;20093;-76
2023/05/19 04:35:18;;;;;;;3.55;2.05;;;21.10;46.40;;;;;;4940868;28;20030;-75
2023/05/19 04:37:45;;;;;;;3.65;1.90;;;21.10;46.30;;;;;;4973968;28;20400;-75
2023/05/19 04:40:13;;;;;;;4.53;2.10;;;21.10;46.40;;;;;;4956408;28;20506;-76
2023/05/19 04:42:41;;;;;;;4.00;2.13;;;21.10;46.40;;;;;;4956583;28;20041;-76
2023/05/19 04:45:12;;;;;;;3.67;1.92;;;21.00;46.30;;;;;;4956681;28;20089;-76
2023/05/19 04:47:41;;;;;;;3.83;2.00;;;21.00;46.40;;;;;;4955387;28;20042;-75
2023/05/19 04:50:09;;;;;;;4.35;2.20;;;21.00;46.30;;;;;;4956002;28;20109;-75
2023/05/19 04:52:35;;;;;;;4.38;2.03;;;21.00;46.50;;;;;;4956364;28;20027;-75
2023/05/19 04:55:03;;;;;;;4.35;2.05;;;21.10;46.40;;;;;;4956422;28;20027;-77
2023/05/19 04:57:29;;;;;;;3.80;2.10;;;21.10;46.40;;;;;;4924408;28;20030;-75
2023/05/19 04:59:58;;;;;;;3.78;2.20;;;21.10;46.50;;;;;;4956295;28;20034;-76
2023/05/19 05:02:26;;;;;;;3.63;1.90;;;21.10;46.50;;;;;;4956153;28;20027;-75
2023/05/19 05:04:53;;;;;;;4.70;2.00;;;21.10;46.40;;;;;;4940211;28;20026;-75
2023/05/19 05:07:20;;;;;;;5.13;1.85;;;21.10;46.50;;;;;;4955747;28;20026;-76
2023/05/19 05:09:47;;;;;;;4.65;1.83;;;21.10;46.40;;;;;;4956104;28;20389;-76
2023/05/19 05:12:14;;;;;;;4.95;2.33;;;21.10;46.40;;;;;;4955953;28;20121;-75
2023/05/19 05:14:40;;;;;;;4.82;2.13;;;21.10;46.40;;;;;;4940159;28;20027;-76
2023/05/19 05:17:08;;;;;;;4.65;2.55;;;21.10;46.30;;;;;;4955639;28;20027;-75
2023/05/19 05:19:34;;;;;;;4.30;2.50;;;21.10;46.30;;;;;;4955889;28;20032;-75
2023/05/19 05:22:00;;;;;;;5.32;2.53;;;21.10;46.40;;;;;;4955777;28;20050;-75
2023/05/19 05:24:27;;;;;;;5.63;2.88;;;21.10;46.40;;;;;;4955758;28;20035;-76
2023/05/19 05:26:57;;;;;;;4.90;2.63;;;21.10;46.30;;;;;;4955404;28;20544;-75
2023/05/19 05:29:24;;;;;;;4.75;2.50;;;21.10;46.40;;;;;;4955532;28;20035;-75
2023/05/19 05:31:51;;;;;;;6.72;2.40;;;21.10;46.50;;;;;;4939480;28;20039;-75
2023/05/19 05:34:17;;;;;;;4.72;2.60;;;21.10;46.40;;;;;;4955538;28;20030;-76
2023/05/19 05:36:43;;;;;;;4.63;2.33;;;21.10;46.50;;;;;;4955468;28;20073;-76
2023/05/19 05:39:09;;;;;;;4.13;2.30;;;21.10;46.50;;;;;;4955381;28;20848;-76
2023/05/19 05:41:37;;;;;;;5.50;2.63;;;21.10;46.50;;;;;;4955671;28;20038;-75
2023/05/19 05:44:09;;;;;;;5.32;2.45;;;21.10;47.00;;;;;;4955418;28;20042;-76
2023/05/19 05:46:37;;;;;;;5.18;2.90;;;21.10;46.50;;;;;;4955455;28;20035;-75
2023/05/19 05:49:03;;;;;;;4.43;2.38;;;21.10;46.50;;;;;;4939366;28;20085;-75
2023/05/19 05:51:31;;;;;;;5.45;2.83;;;21.10;46.50;;;;;;4972581;28;20035;-75
2023/05/19 05:53:59;;;;;;;5.22;2.50;;;21.10;46.50;;;;;;4939549;28;20026;-75
2023/05/19 05:56:32;;;;;;;4.93;2.58;;;21.10;46.50;;;;;;4955669;28;20085;-75
2023/05/19 05:59:00;;;;;;;5.47;2.80;;;21.10;46.50;;;;;;4954723;28;20031;-75
2023/05/19 06:01:26;;;;;;;6.10;2.75;;;21.10;46.50;;;;;;4955491;28;20034;-75
2023/05/19 06:03:53;;;;;;;5.15;2.58;;;21.10;46.40;;;;;;4955331;28;20038;-75
2023/05/19 06:06:22;;;;;;;5.10;2.80;;;21.10;46.40;;;;;;4955165;28;20493;-75
2023/05/19 06:08:48;;;;;;;5.75;2.65;;;21.10;46.40;;;;;;4938708;28;20130;-76
2023/05/19 06:11:14;;;;;;;4.32;2.33;;;21.10;46.50;;;;;;4955202;28;20066;-75
2023/05/19 06:13:40;;;;;;;5.10;2.70;;;21.10;46.40;;;;;;4955134;28;20031;-75
2023/05/19 06:16:09;;;;;;;6.10;2.80;;;21.10;46.40;;;;;;4955101;28;20059;-75
2023/05/19 06:18:39;;;;;;;5.30;3.00;;;21.10;46.40;;;;;;4954938;28;20027;-74
2023/05/19 06:21:05;;;;;;;5.43;2.60;;;21.10;46.40;;;;;;4972321;28;20191;-74
2023/05/19 06:23:31;;;;;;;4.50;2.58;;;21.10;46.40;;;;;;4972317;28;20026;-74
2023/05/19 06:25:58;;;;;;;4.90;2.72;;;21.10;46.40;;;;;;4954982;28;20524;-75
2023/05/19 06:28:24;;;;;;;6.43;3.08;;;21.10;46.40;;;;;;4954485;28;20054;-75
2023/05/19 06:30:51;;;;;;;4.80;2.50;;;21.10;46.40;;;;;;4954868;28;20532;-75
2023/05/19 06:33:26;;;;;;;5.70;2.80;;;21.10;46.40;;;;;;4955007;28;20122;-75
2023/05/19 06:35:52;;;;;;;5.53;3.00;;;21.10;46.40;;;;;;4938796;28;20110;-75
2023/05/19 06:38:19;;;;;;;4.88;2.70;;;21.10;46.50;;;;;;4938548;28;20027;-75
2023/05/19 06:40:45;;;;;;;4.70;2.80;;;21.20;46.60;;;;;;4954780;28;20038;-74
2023/05/19 06:43:11;;;;;;;4.78;2.72;;;21.20;46.60;;;;;;4954562;28;20031;-75
2023/05/19 06:45:52;;;;;;;4.55;2.30;;;21.20;46.70;;;;;;4954415;28;20043;-75
2023/05/19 06:48:18;;;;;;;5.00;2.95;;;21.10;46.60;;;;;;4954112;28;20114;-75
2023/05/19 06:50:44;;;;;;;5.22;2.80;;;21.20;46.70;;;;;;4954245;28;20433;-75
2023/05/19 06:53:11;;;;;;;4.53;2.80;;;21.20;46.70;;;;;;4954451;28;20511;-75
2023/05/19 06:55:38;;;;;;;5.05;2.60;;;21.10;46.60;;;;;;4954297;28;20035;-75
2023/05/19 06:58:04;;;;;;;4.50;2.53;;;21.20;46.70;;;;;;4953948;28;20031;-75
2023/05/19 07:00:29;;;;;;;5.80;2.90;;;21.20;46.80;;;;;;4938583;28;20030;-74
2023/05/19 07:02:56;;;;;;;4.97;2.95;;;21.20;46.80;;;;;;4954382;28;20110;-75
2023/05/19 07:05:23;;;;;;;4.82;2.63;;;21.20;46.80;;;;;;4954365;28;20501;-73
2023/05/19 07:07:53;;;;;;;5.28;2.72;;;21.20;46.80;;;;;;4954041;28;20401;-73
2023/05/19 07:10:23;;;;;;;5.63;2.80;;;21.20;46.80;;;;;;4955649;28;20071;-74
2023/05/19 07:12:49;;;;;;;4.78;2.78;;;21.20;46.90;;;;;;4957873;28;20027;-74
2023/05/19 07:15:17;;;;;;;5.07;2.80;;;21.20;46.90;;;;;;4957972;28;20027;-74
2023/05/19 07:17:43;;;;;;;5.38;2.90;;;21.20;46.90;;;;;;4957484;28;20515;-74
2023/05/19 07:20:09;;;;;;;5.60;3.03;;;21.20;46.90;;;;;;4941772;28;20133;-73
2023/05/19 07:22:37;;;;;;;5.15;2.58;;;21.20;46.90;;;;;;4957763;28;20026;-73
2023/05/19 07:25:03;;;;;;;5.50;2.92;;;21.20;46.90;;;;;;4957695;28;20038;-72
2023/05/19 07:27:29;;;;;;;4.90;2.65;;;21.20;47.00;;;;;;4957168;28;20026;-73
2023/05/19 07:29:55;;;;;;;5.82;3.33;;;21.30;47.00;;;;;;4957073;28;20109;-73
2023/05/19 07:32:21;;;;;;;4.90;2.78;;;21.30;47.00;;;;;;4974663;28;20026;-73
2023/05/19 07:34:46;;;;;;;4.85;2.67;;;21.30;47.10;;;;;;4957244;28;20019;-74
2023/05/19 07:37:12;;;;;;;3.92;2.42;;;21.30;47.30;;;;;;4974352;28;20041;-73
2023/05/19 07:39:38;;;;;;;5.93;2.95;;;21.20;47.20;;;;;;4974793;28;20046;-73
2023/05/19 07:42:04;;;;;;;4.90;2.97;;;21.30;47.30;;;;;;4974611;28;20400;-73
2023/05/19 07:44:30;;;;;;;5.53;2.88;;;21.30;47.30;;;;;;4974537;28;20042;-74
2023/05/19 07:46:56;;;;;;;5.03;2.88;;;21.30;47.50;;;;;;4940915;28;20485;-73
2023/05/19 07:49:22;;;;;;;5.32;2.67;;;21.30;47.30;;;;;;4974435;28;21040;-74
2023/05/19 07:51:48;;;;;;;5.93;2.97;;;21.30;47.50;;;;;;4974310;28;20113;-74
2023/05/19 07:54:14;;;;;;;7.20;3.45;;;21.20;47.30;;;;;;4974299;28;20037;-74
2023/05/19 07:56:40;;;;;;;7.45;3.13;;;21.20;47.40;;;;;;4974453;28;20023;-74
2023/05/19 07:59:06;;;;;;;4.88;2.60;;;21.20;47.20;;;;;;4940824;28;20027;-74
2023/05/19 08:01:33;;;;;;;5.53;3.00;;;21.30;47.50;;;;;;4974452;28;20026;-74
2023/05/19 08:03:59;;;;;;;5.25;2.90;;;21.30;47.40;;;;;;4941305;28;20038;-74
2023/05/19 08:06:24;;;;;;;4.80;2.85;;;21.30;47.50;;;;;;4958871;28;20035;-74
2023/05/19 08:08:51;;;;;;;5.55;2.97;;;21.30;47.60;;;;;;4959126;28;20165;-74
2023/05/19 08:11:17;;;;;;;6.10;3.10;;;21.30;47.60;;;;;;4978665;28;20397;-74
2023/05/19 08:13:42;;;;;;;5.63;2.80;;;21.30;47.60;;;;;;4979051;28;20023;-75
2023/05/19 08:16:08;;;;;;;5.07;2.80;;;21.30;47.60;;;;;;4960437;28;20033;-73
2023/05/19 08:18:34;;;;;;;5.35;2.80;;;21.30;47.60;;;;;;4975417;28;20413;-74
2023/05/19 08:21:00;;;;;;;6.78;2.95;;;21.30;47.40;;;;;;4974934;28;20094;-74
2023/05/19 08:23:26;;;;;;;4.43;2.90;;;21.30;47.50;;;;;;4958300;28;20035;-74
2023/05/19 08:25:51;;;;;;;5.28;2.85;;;21.30;47.50;;;;;;4975134;28;20500;-75
2023/05/19 08:28:17;;;;;;;4.68;2.60;;;21.30;47.60;;;;;;4974316;28;20034;-74
2023/05/19 08:30:43;;;;;;;4.53;2.60;;;21.30;47.50;;;;;;4974513;28;20029;-75
2023/05/19 08:33:09;;;;;;;5.80;2.80;;;21.30;47.60;;;;;;4974521;28;20018;-75
2023/05/19 08:35:35;;;;;;;4.32;2.60;;;21.40;47.70;;;;;;4974129;28;20023;-75
2023/05/19 08:38:01;;;;;;;4.40;2.65;;;21.30;47.80;;;;;;4956124;28;20066;-75
2023/05/19 08:40:30;;;;;;;6.30;3.13;;;21.30;47.80;;;;;;4973437;28;20646;-75
2023/05/19 08:42:56;;;;;;;6.53;2.90;;;21.30;47.80;;;;;;4973554;28;20039;-74
2023/05/19 08:45:21;;;;;;;5.78;2.78;;;21.30;47.80;;;;;;4956056;28;20030;-75
2023/05/19 08:47:50;;;;;;;4.38;3.03;;;21.30;47.90;;;;;;4972962;28;20397;-75
2023/05/19 08:50:29;;;;;;;6.07;2.97;;;21.30;48.00;;;;;;4955864;28;20058;-75
2023/05/19 08:52:57;;;;;;;4.25;2.60;;;21.30;47.90;;;;;;4956082;28;20489;-75
2023/05/19 08:55:38;;;;;;;5.03;2.78;;;21.30;47.80;;;;;;4973546;28;20031;-75
2023/05/19 08:58:04;;;;;;;4.80;2.88;;;21.30;47.90;;;;;;4973137;28;20486;-75
2023/05/19 09:00:31;;;;;;;5.85;3.03;;;21.30;47.90;;;;;;4956174;28;20037;-75
2023/05/19 09:02:59;;;;;;;6.13;3.40;;;21.30;47.90;;;;;;4973305;28;20045;-75
2023/05/19 09:05:25;;;;;;;5.32;2.72;;;21.30;47.80;;;;;;4956225;28;20034;-75
2023/05/19 09:07:50;;;;;;;5.95;3.47;;;21.30;47.80;;;;;;4972978;28;20031;-75
2023/05/19 09:10:16;;;;;;;7.15;3.20;;;21.30;47.80;;;;;;4973059;28;20031;-76
2023/05/19 09:12:44;;;;;;;5.38;2.80;;;21.30;47.80;;;;;;4956062;28;20031;-75
2023/05/19 09:15:11;;;;;;;5.07;2.92;;;21.30;47.80;;;;;;4940036;28;20037;-75
2023/05/19 09:17:38;;;;;;;5.18;2.92;;;21.30;47.80;;;;;;4973073;28;20437;-75
2023/05/19 09:20:09;;;;;;;4.47;2.53;;;21.30;47.80;;;;;;4973256;28;20023;-74
2023/05/19 09:22:44;;;;;;;6.55;3.00;;;21.30;47.90;;;;;;4973182;28;20035;-75
2023/05/19 09:25:22;;;;;;;5.95;2.80;;;21.40;47.90;;;;;;4939910;28;20057;-75
2023/05/19 09:27:49;;;;;;;6.25;2.80;;;21.40;47.80;;;;;;4972808;28;20085;-75
2023/05/19 09:30:16;;;;;;;5.60;2.88;;;21.40;47.90;;;;;;4972776;28;20448;-75
2023/05/19 09:32:42;;;;;;;4.30;2.60;;;21.40;47.80;;;;;;4972556;28;20058;-75
2023/05/19 09:35:08;;;;;;;5.93;2.80;;;21.40;47.90;;;;;;4955871;28;20031;-75
2023/05/19 09:37:34;;;;;;;3.72;2.58;;;21.40;48.00;;;;;;4972658;28;20050;-75
2023/05/19 09:40:00;;;;;;;5.53;2.80;;;21.40;48.00;;;;;;4955617;28;20060;-75
2023/05/19 09:42:27;;;;;;;4.85;2.38;;;21.30;47.90;;;;;;4955740;28;20039;-75
2023/05/19 09:45:01;;;;;;;4.55;2.88;;;21.30;47.90;;;;;;4939764;28;20034;-75
2023/05/19 09:47:31;;;;;;;4.45;2.88;;;21.40;48.00;;;;;;4955250;28;20054;-76
2023/05/19 09:49:57;;;;;;;5.15;2.78;;;21.40;48.00;;;;;;4956163;28;20029;-74
2023/05/19 09:52:23;;;;;;;5.10;3.00;;;21.40;48.00;;;;;;4972914;28;20027;-74
2023/05/19 09:54:50;;;;;;;4.47;2.72;;;21.40;48.00;;;;;;4972539;28;20034;-75
2023/05/19 09:57:16;;;;;;;5.82;2.45;;;21.40;48.00;;;;;;4972149;28;20029;-75
2023/05/19 09:59:43;;;;;;;4.45;2.55;;;21.40;48.00;;;;;;4939389;28;20030;-75
2023/05/19 10:02:15;;;;;;;5.35;2.40;;;21.40;48.00;;;;;;4972763;28;20027;-75
2023/05/19 10:04:41;;;;;;;5.07;2.60;;;21.40;48.00;;;;;;4972615;28;20489;-75
2023/05/19 10:07:10;;;;;;;6.00;2.65;;;21.30;47.90;;;;;;4972057;28;20027;-75
2023/05/19 10:09:38;;;;;;;4.28;2.55;;;21.30;47.90;;;;;;4972293;28;20035;-75
2023/05/19 10:12:05;;;;;;;5.53;2.88;;;21.30;47.90;;;;;;4972551;28;20445;-75
2023/05/19 10:14:31;;;;;;;3.58;2.35;;;21.30;47.90;;;;;;4972365;28;20037;-75
2023/05/19 10:16:58;;;;;;;8.18;2.90;;;21.40;48.00;;;;;;4971710;28;20023;-73
2023/05/19 10:19:26;;;;;;;6.15;2.80;;;21.30;47.90;;;;;;4971960;28;20089;-74
2023/05/19 10:21:52;;;;;;;4.00;2.35;;;21.40;47.90;;;;;;4972086;28;20065;-74
2023/05/19 10:24:20;;;;;;;5.20;2.53;;;21.40;47.90;;;;;;4972260;28;20029;-74
2023/05/19 10:27:09;;;;;;;3.60;2.40;;;21.40;47.90;;;;;;4972230;28;20031;-74
2023/05/19 10:29:39;;;;;;;4.93;2.20;;;21.40;47.90;;;;;;4972188;28;20069;-74
2023/05/19 10:32:16;;;;;;;4.15;2.58;;;21.40;47.80;;;;;;4972247;28;20369;-74
2023/05/19 10:34:58;;;;;;;4.38;2.22;;;21.40;47.90;;;;;;4955169;28;20323;-74
2023/05/19 10:37:40;;;;;;;4.28;2.55;;;21.40;47.80;;;;;;4972119;28;20038;-74
2023/05/19 10:40:12;;;;;;;4.43;2.58;;;21.40;47.80;;;;;;4955042;28;20106;-74
2023/05/19 10:42:52;;;;;;;3.88;2.50;;;21.40;47.90;;;;;;4972423;28;20027;-74
2023/05/19 10:45:25;;;;;;;4.95;2.80;;;21.40;47.90;;;;;;4957922;28;20059;-74
2023/05/19 10:47:53;;;;;;;3.97;2.53;;;21.40;47.90;;;;;;4958876;28;20042;-74
2023/05/19 10:50:19;;;;;;;3.85;2.50;;;21.40;47.90;;;;;;4975834;28;20026;-74
2023/05/19 10:52:55;;;;;;;4.32;2.50;;;21.40;48.00;;;;;;4975846;28;20497;-74
2023/05/19 10:55:50;;;;;;;4.15;2.60;;;21.40;48.00;;;;;;4958490;28;20101;-74
2023/05/19 10:58:45;;;;;;;6.57;2.42;;;21.40;47.90;;;;;;4975414;28;20049;-73
2023/05/19 11:01:15;;;;;;;5.65;2.70;;;21.40;48.60;;;;;;4958222;28;20033;-74
2023/05/19 11:03:47;;;;;;;5.15;2.72;;;21.40;48.00;;;;;;4975816;28;20404;-73
2023/05/19 11:06:20;;;;;;;3.90;2.40;;;21.40;48.00;;;;;;4975538;28;20031;-73
2023/05/19 11:08:51;;;;;;;4.07;2.47;;;21.40;48.00;;;;;;4957931;28;20034;-74
2023/05/19 11:11:16;;;;;;;3.47;2.10;;;21.40;48.00;;;;;;4975691;28;20035;-74
2023/05/19 11:13:47;;;;;;;4.50;2.50;;;21.30;47.90;;;;;;4975735;28;20019;-74
2023/05/19 11:16:17;;;;;;;4.18;2.28;;;21.40;48.00;;;;;;4975372;28;20119;-74
2023/05/19 11:18:47;;;;;;;3.92;2.20;;;21.40;48.00;;;;;;4975162;28;20070;-73
2023/05/19 11:21:13;;;;;;;5.25;2.60;;;21.40;48.00;;;;;;4942118;28;20058;-74
2023/05/19 11:23:38;;;;;;;3.92;2.35;;;21.30;47.90;;;;;;4975569;28;20066;-74
2023/05/19 11:26:07;;;;;;;5.18;2.35;;;21.40;48.00;;;;;;4958035;28;20026;-74
2023/05/19 11:28:34;;;;;;;3.92;2.40;;;21.40;47.90;;;;;;4974661;28;20058;-75
2023/05/19 11:31:01;;;;;;;3.25;2.28;;;21.40;47.90;;;;;;4957904;28;20031;-75
2023/05/19 11:33:27;;;;;;;3.97;2.40;;;21.40;47.90;;;;;;4975303;28;20105;-74
2023/05/19 11:35:57;;;;;;;3.45;2.20;;;21.40;47.90;;;;;;4975097;28;20515;-74
2023/05/19 11:38:22;;;;;;;4.38;2.15;;;21.40;47.90;;;;;;4957349;28;20035;-75
2023/05/19 11:40:52;;;;;;;4.05;2.40;;;21.40;48.00;;;;;;4974999;28;20110;-75
2023/05/19 11:43:17;;;;;;;3.85;2.25;;;21.40;48.00;;;;;;4974889;28;20065;-75
2023/05/19 11:45:44;;;;;;;4.78;2.30;;;21.40;48.00;;;;;;4974869;28;20031;-74
2023/05/19 11:48:17;;;;;;;4.88;2.50;;;21.40;48.00;;;;;;4974388;28;20094;-74
2023/05/19 11:50:43;;;;;;;3.83;2.25;;;21.40;48.00;;;;;;4957467;28;20038;-74
2023/05/19 11:53:15;;;;;;;4.57;2.55;;;21.40;47.90;;;;;;4974761;28;20027;-75
2023/05/19 11:55:43;;;;;;;5.05;2.50;;;21.30;47.90;;;;;;4941345;28;20449;-75
2023/05/19 11:58:09;;;;;;;3.15;2.20;;;21.40;48.00;;;;;;4974275;28;20059;-75
2023/05/19 12:00:38;;;;;;;3.50;2.40;;;21.30;47.90;;;;;;4974585;28;20449;-75
2023/05/19 12:03:05;;;;;;;3.63;2.10;;;21.40;47.90;;;;;;4957580;28;20438;-74
2023/05/19 12:05:31;;;;;;;3.67;2.30;;;21.40;47.90;;;;;;4974493;28;20035;-75
2023/05/19 12:07:59;;;;;;;4.25;2.10;;;21.40;48.00;;;;;;4956910;28;20038;-75
2023/05/19 12:10:30;;;;;;;4.45;2.40;;;21.40;47.90;;;;;;4974202;28;20501;-74
2023/05/19 12:12:59;;;;;;;4.25;2.42;;;21.40;47.90;;;;;;4957239;28;20501;-75
2023/05/19 12:15:25;;;;;;;3.60;2.33;;;21.40;47.80;;;;;;4957260;28;20078;-75
2023/05/19 12:17:57;;;;;;;4.97;2.20;;;21.40;47.80;;;;;;4974003;28;20440;-74
2023/05/19 12:20:25;;;;;;;3.03;2.13;;;21.40;47.90;;;;;;4957239;28;20118;-74
2023/05/19 12:22:51;;;;;;;4.32;2.42;;;21.40;47.80;;;;;;4974187;28;20039;-75
2023/05/19 12:25:17;;;;;;;4.68;2.30;;;21.40;47.90;;;;;;4957180;28;20038;-75
2023/05/19 12:27:44;;;;;;;4.97;2.45;;;21.40;47.90;;;;;;4973752;28;20033;-75
2023/05/19 12:30:11;;;;;;;3.22;2.10;;;21.40;47.90;;;;;;4973816;28;20042;-75
2023/05/19 12:32:37;;;;;;;3.70;2.33;;;21.40;47.80;;;;;;4973813;28;20031;-75
2023/05/19 12:35:04;;;;;;;4.63;2.40;;;21.40;47.90;;;;;;4956602;28;20115;-75
2023/05/19 12:37:32;;;;;;;3.78;2.30;;;21.40;47.90;;;;;;4973654;28;20485;-75
2023/05/19 12:39:58;;;;;;;3.97;2.33;;;21.40;47.90;;;;;;4956598;28;20393;-75
2023/05/19 12:42:31;;;;;;;3.90;2.35;;;21.40;47.80;;;;;;4973727;28;20023;-75
2023/05/19 12:44:59;;;;;;;5.30;2.15;;;21.40;47.90;;;;;;4973708;28;20046;-74
2023/05/19 12:47:34;;;;;;;4.43;2.30;;;21.40;47.90;;;;;;4956168;28;20074;-74
2023/05/19 12:50:00;;;;;;;4.43;2.47;;;21.40;47.80;;;;;;4956267;28;20030;-74
2023/05/19 12:52:28;;;;;;;7.40;2.92;;;21.40;47.90;;;;;;4956262;28;20478;-75
2023/05/19 12:55:05;;;;;;;3.58;2.38;;;21.40;48.30;;;;;;4973550;28;20027;-74